createdAt,value
2023-05-18T00:01:54.123Z,7.07
2023-05-18T00:04:24.297Z,5.40
2023-05-18T00:06:56.958Z,5.77
2023-05-18T00:09:25.742Z,10.93
2023-05-18T00:11:58.695Z,6.50
2023-05-18T00:14:27.470Z,7.63
2023-05-18T00:16:55.868Z,8.40
2023-05-18T00:19:24.487Z,7.93
2023-05-18T00:21:56.066Z,9.17
2023-05-18T00:24:24.369Z,14.07
2023-05-18T00:26:52.846Z,11.30
2023-05-18T00:29:23.181Z,6.00
2023-05-18T00:31:51.252Z,14.40
2023-05-18T00:34:21.355Z,8.10
2023-05-18T00:36:49.498Z,9.30
2023-05-18T00:39:17.863Z,11.60
2023-05-18T00:41:46.000Z,17.07
2023-05-18T00:44:14.038Z,5.43
2023-05-18T00:46:44.498Z,11.20
2023-05-18T00:49:13.089Z,6.07
2023-05-18T00:51:42.751Z,5.03
2023-05-18T00:54:10.857Z,11.30
2023-05-18T00:56:41.836Z,10.10
2023-05-18T00:59:11.900Z,10.20
2023-05-18T01:01:44.026Z,7.33
2023-05-18T01:04:19.160Z,9.40
2023-05-18T01:06:47.420Z,5.50
2023-05-18T01:09:16.431Z,5.70
2023-05-18T01:11:57.011Z,15.17
2023-05-18T01:14:30.723Z,8.20
2023-05-18T01:17:10.656Z,15.23
2023-05-18T01:20:10.908Z,9.30
2023-05-18T01:22:47.941Z,8.73
2023-05-18T01:25:23.813Z,10.40
2023-05-18T01:27:56.244Z,8.17
2023-05-18T01:30:24.944Z,6.37
2023-05-18T01:32:52.939Z,9.43
2023-05-18T01:35:21.776Z,10.63
2023-05-18T01:37:49.834Z,6.03
2023-05-18T01:40:18.197Z,11.10
2023-05-18T01:42:53.793Z,9.90
2023-05-18T01:45:29.188Z,8.90
2023-05-18T01:48:03.367Z,6.83
2023-05-18T01:50:37.948Z,10.20
2023-05-18T01:53:13.045Z,11.10
2023-05-18T01:55:42.174Z,13.73
2023-05-18T01:58:13.313Z,9.33
2023-05-18T02:00:42.814Z,13.60
2023-05-18T02:03:13.978Z,10.03
2023-05-18T02:05:42.067Z,7.47
2023-05-18T02:08:10.077Z,9.27
2023-05-18T02:10:38.043Z,11.27
2023-05-18T02:13:06.000Z,6.80
2023-05-18T02:15:33.953Z,5.10
2023-05-18T02:18:09.349Z,6.60
2023-05-18T02:20:38.365Z,9.00
2023-05-18T02:23:06.772Z,5.03
2023-05-18T02:25:35.210Z,10.77
2023-05-18T02:28:03.067Z,7.07
2023-05-18T02:30:33.412Z,4.90
2023-05-18T02:33:01.683Z,12.50
2023-05-18T02:35:31.756Z,6.70
2023-05-18T02:38:00.445Z,6.40
2023-05-18T02:40:28.269Z,6.03
2023-05-18T02:42:56.177Z,7.70
2023-05-18T02:45:23.972Z,12.63
2023-05-18T02:47:51.771Z,4.30
2023-05-18T02:50:20.072Z,5.47
2023-05-18T02:52:50.248Z,5.03
2023-05-18T02:55:18.902Z,5.47
2023-05-18T02:57:48.158Z,5.03
2023-05-18T03:00:16.898Z,4.27
2023-05-18T03:02:48.511Z,11.40
2023-05-18T03:05:18.756Z,6.60
2023-05-18T03:07:51.007Z,5.90
2023-05-18T03:10:20.627Z,10.53
2023-05-18T03:12:49.393Z,9.53
2023-05-18T03:15:17.202Z,5.40
2023-05-18T03:17:45.136Z,5.03
2023-05-18T03:20:15.719Z,6.13
2023-05-18T03:22:43.746Z,11.60
2023-05-18T03:25:11.472Z,6.00
2023-05-18T03:27:40.833Z,8.47
2023-05-18T03:30:09.860Z,8.73
2023-05-18T03:32:38.130Z,7.43
2023-05-18T03:35:06.625Z,9.27
2023-05-18T03:37:34.470Z,5.33
2023-05-18T03:40:11.425Z,10.63
2023-05-18T03:42:41.911Z,8.40
2023-05-18T03:45:10.894Z,14.50
2023-05-18T03:47:39.651Z,6.70
2023-05-18T03:50:08.966Z,4.50
2023-05-18T03:52:37.220Z,9.13
2023-05-18T03:55:06.213Z,5.13
2023-05-18T03:57:34.455Z,9.13
2023-05-18T04:00:08.885Z,7.33
2023-05-18T04:02:37.562Z,7.50
2023-05-18T04:05:06.429Z,4.50
2023-05-18T04:07:34.520Z,12.33
2023-05-18T04:10:02.592Z,9.40
2023-05-18T04:12:31.170Z,10.90
2023-05-18T04:14:59.086Z,5.83
2023-05-18T04:17:28.426Z,11.37
2023-05-18T04:19:56.440Z,9.67
2023-05-18T04:22:24.283Z,10.67
2023-05-18T04:24:55.384Z,7.83
2023-05-18T04:27:23.184Z,4.80
2023-05-18T04:29:51.972Z,4.07
2023-05-18T04:32:22.320Z,7.13
2023-05-18T04:34:51.662Z,5.10
2023-05-18T04:37:19.760Z,10.13
2023-05-18T04:39:48.089Z,9.50
2023-05-18T04:42:18.568Z,14.53
2023-05-18T04:44:48.983Z,10.83
2023-05-18T04:47:16.897Z,6.37
2023-05-18T04:49:44.706Z,5.60
2023-05-18T04:52:15.021Z,4.73
2023-05-18T04:54:43.348Z,9.13
2023-05-18T04:57:12.052Z,6.57
2023-05-18T04:59:41.459Z,5.80
2023-05-18T05:02:09.454Z,8.43
2023-05-18T05:04:37.392Z,4.47
2023-05-18T05:07:05.975Z,8.93
2023-05-18T05:09:35.383Z,4.67
2023-05-18T05:12:04.162Z,6.70
2023-05-18T05:14:32.576Z,12.43
2023-05-18T05:17:02.833Z,6.50
2023-05-18T05:19:33.456Z,8.47
2023-05-18T05:22:02.094Z,7.73
2023-05-18T05:24:31.275Z,5.47
2023-05-18T05:27:07.997Z,7.70
2023-05-18T05:29:36.654Z,8.43
2023-05-18T05:32:05.512Z,7.63
2023-05-18T05:34:33.565Z,4.43
2023-05-18T05:37:04.045Z,4.53
2023-05-18T05:39:33.434Z,5.63
2023-05-18T05:42:07.377Z,4.00
2023-05-18T05:44:35.525Z,12.70
2023-05-18T05:47:04.861Z,7.70
2023-05-18T05:49:33.397Z,4.30
2023-05-18T05:52:03.380Z,8.47
2023-05-18T05:54:31.866Z,5.60
2023-05-18T05:57:00.332Z,5.40
2023-05-18T05:59:29.986Z,6.33
2023-05-18T06:01:58.664Z,8.23
2023-05-18T06:04:26.787Z,4.80
2023-05-18T06:06:55.459Z,9.33
2023-05-18T06:09:23.692Z,4.77
2023-05-18T06:11:52.912Z,4.17
2023-05-18T06:14:22.486Z,4.77
2023-05-18T06:16:53.086Z,5.43
2023-05-18T06:19:21.878Z,7.03
2023-05-18T06:21:49.914Z,7.37
2023-05-18T06:24:19.188Z,7.50
2023-05-18T06:26:47.129Z,7.90
2023-05-18T06:29:17.414Z,8.60
2023-05-18T06:31:46.056Z,4.50
2023-05-18T06:34:17.894Z,10.97
2023-05-18T06:36:46.582Z,4.47
2023-05-18T06:41:56.045Z,6.40
2023-05-18T06:44:23.692Z,8.97
2023-05-18T06:46:51.336Z,4.33
2023-05-18T06:49:20.291Z,6.00
2023-05-18T06:51:48.262Z,7.83
2023-05-18T06:54:16.359Z,6.77
2023-05-18T06:56:43.994Z,5.20
2023-05-18T06:59:11.709Z,6.20
2023-05-18T07:01:39.405Z,5.07
2023-05-18T07:04:07.598Z,4.47
2023-05-18T07:06:37.239Z,7.10
2023-05-18T07:09:05.610Z,7.90
2023-05-18T07:11:33.194Z,4.07
2023-05-18T07:14:00.973Z,7.00
2023-05-18T07:16:28.754Z,4.10
2023-05-18T07:18:57.962Z,7.53
2023-05-18T07:21:26.217Z,4.87
2023-05-18T07:23:55.785Z,6.53
2023-05-18T07:26:23.684Z,8.43
2023-05-18T07:28:52.078Z,5.93
2023-05-18T07:31:21.655Z,7.40
2023-05-18T07:33:50.150Z,6.17
2023-05-18T07:36:17.984Z,6.80
2023-05-18T07:38:45.668Z,4.83
2023-05-18T07:41:15.176Z,6.87
2023-05-18T07:43:42.793Z,6.80
2023-05-18T07:46:11.125Z,4.50
2023-05-18T07:48:40.812Z,7.47
2023-05-18T07:51:10.166Z,7.17
2023-05-18T07:53:38.203Z,5.37
2023-05-18T07:56:06.990Z,7.87
2023-05-18T07:58:36.093Z,8.07
2023-05-18T08:01:03.949Z,6.17
2023-05-18T08:03:31.943Z,8.07
2023-05-18T08:06:00.367Z,8.50
2023-05-18T08:08:28.814Z,7.33
2023-05-18T08:10:56.526Z,6.67
2023-05-18T08:13:24.101Z,5.47
2023-05-18T08:16:02.980Z,8.93
2023-05-18T08:18:38.530Z,5.10
2023-05-18T08:21:08.169Z,10.10
2023-05-18T08:23:36.060Z,3.93
2023-05-18T08:26:04.565Z,5.90
2023-05-18T08:28:32.821Z,5.03
2023-05-18T08:31:01.861Z,4.53
2023-05-18T08:33:29.554Z,3.93
2023-05-18T08:35:57.216Z,7.27
2023-05-18T08:38:24.823Z,5.67
2023-05-18T08:40:59.829Z,5.23
2023-05-18T08:43:33.326Z,11.60
2023-05-18T08:46:07.714Z,6.67
2023-05-18T08:48:37.824Z,4.17
2023-05-18T08:51:07.572Z,4.97
2023-05-18T08:53:38.942Z,5.70
2023-05-18T08:56:07.261Z,7.57
2023-05-18T08:58:37.195Z,3.80
2023-05-18T09:01:06.873Z,11.17
2023-05-18T09:03:34.987Z,10.67
2023-05-18T09:06:04.551Z,5.37
2023-05-18T09:08:33.138Z,5.20
2023-05-18T09:11:03.530Z,4.77
2023-05-18T09:13:31.680Z,6.93
2023-05-18T09:15:59.381Z,4.10
2023-05-18T09:18:28.646Z,7.03
2023-05-18T09:20:56.708Z,5.93
2023-05-18T09:23:24.773Z,5.63
2023-05-18T09:25:53.715Z,5.90
2023-05-18T09:28:28.994Z,8.40
2023-05-18T09:30:56.728Z,9.67
2023-05-18T09:33:25.974Z,4.33
2023-05-18T09:35:55.117Z,4.50
2023-05-18T09:38:23.535Z,5.83
2023-05-18T09:40:51.804Z,4.20
2023-05-18T09:43:19.850Z,6.70
2023-05-18T09:45:49.582Z,5.00
2023-05-18T09:48:18.010Z,5.87
2023-05-18T09:50:46.295Z,10.87
2023-05-18T09:53:15.944Z,7.73
2023-05-18T09:55:47.641Z,6.40
2023-05-18T09:58:15.550Z,4.27
2023-05-18T10:00:44.647Z,4.50
2023-05-18T10:03:20.196Z,7.43
2023-05-18T10:05:47.956Z,9.40
2023-05-18T10:08:17.738Z,8.20
2023-05-18T10:10:47.428Z,8.73
2023-05-18T10:13:18.219Z,4.23
2023-05-18T10:15:50.954Z,4.33
2023-05-18T10:18:23.416Z,4.23
2023-05-18T10:20:52.820Z,9.00
2023-05-18T10:23:23.084Z,5.00
2023-05-18T10:25:52.292Z,7.47
2023-05-18T10:28:25.924Z,5.53
2023-05-18T10:30:55.639Z,5.10
2023-05-18T10:33:29.621Z,4.33
2023-05-18T10:35:58.456Z,4.63
2023-05-18T10:38:28.715Z,4.27
2023-05-18T10:41:00.212Z,7.63
2023-05-18T10:43:29.396Z,4.07
2023-05-18T10:45:58.766Z,4.30
2023-05-18T10:48:27.524Z,4.33
2023-05-18T10:50:56.485Z,4.10
2023-05-18T10:53:26.937Z,4.50
2023-05-18T10:55:57.003Z,9.80
2023-05-18T10:58:27.587Z,10.60
2023-05-18T11:00:58.404Z,7.20
2023-05-18T11:03:27.208Z,7.27
2023-05-18T11:06:06.633Z,5.60
2023-05-18T11:08:34.926Z,6.47
2023-05-18T11:11:07.342Z,4.53
2023-05-18T11:13:36.094Z,11.97
2023-05-18T11:16:08.445Z,18.83
2023-05-18T11:18:39.112Z,4.80
2023-05-18T11:21:22.700Z,14.87
2023-05-18T11:24:25.492Z,5.13
2023-05-18T11:26:56.369Z,4.17
2023-05-18T11:29:25.888Z,7.70
2023-05-18T11:31:54.928Z,11.30
2023-05-18T11:34:42.116Z,6.03
2023-05-18T11:37:10.445Z,7.43
2023-05-18T11:39:47.982Z,7.63
2023-05-18T11:42:24.836Z,8.70
2023-05-18T11:44:56.223Z,5.97
2023-05-18T11:47:30.790Z,6.97
2023-05-18T11:50:00.313Z,7.23
2023-05-18T11:52:28.441Z,5.97
2023-05-18T11:54:58.224Z,4.83
2023-05-18T11:57:39.929Z,5.30
2023-05-18T12:00:10.214Z,5.10
2023-05-18T12:02:38.623Z,5.20
2023-05-18T12:05:09.427Z,4.63
2023-05-18T12:07:38.843Z,6.03
2023-05-18T12:10:08.981Z,5.30
2023-05-18T12:12:39.569Z,4.80
2023-05-18T12:15:09.494Z,7.33
2023-05-18T12:17:41.043Z,4.37
2023-05-18T12:20:09.791Z,4.70
2023-05-18T12:22:37.514Z,9.23
2023-05-18T12:25:05.732Z,7.40
2023-05-18T12:27:40.990Z,6.63
2023-05-18T12:30:11.899Z,7.67
2023-05-18T12:32:39.670Z,7.63
2023-05-18T12:35:08.967Z,8.87
2023-05-18T12:37:45.199Z,4.90
2023-05-18T12:40:15.890Z,4.40
2023-05-18T12:42:54.502Z,5.33
2023-05-18T12:45:24.391Z,6.90
2023-05-18T12:47:54.487Z,5.33
2023-05-18T12:50:23.499Z,6.13
2023-05-18T12:52:51.301Z,8.90
2023-05-18T12:55:21.712Z,5.63
2023-05-18T12:58:02.144Z,7.17
2023-05-18T13:00:33.608Z,5.00
2023-05-18T13:03:07.173Z,6.50
2023-05-18T13:05:34.904Z,5.97
2023-05-18T13:08:02.822Z,5.73
2023-05-18T13:10:31.998Z,4.83
2023-05-18T13:13:03.758Z,9.47
2023-05-18T13:15:35.642Z,5.77
2023-05-18T13:18:04.626Z,4.63
2023-05-18T13:20:37.958Z,6.03
2023-05-18T13:23:07.923Z,5.07
2023-05-18T13:25:35.605Z,4.57
2023-05-18T13:28:05.368Z,5.33
2023-05-18T13:30:33.438Z,5.20
2023-05-18T13:33:01.943Z,5.10
2023-05-18T13:35:30.179Z,6.53
2023-05-18T13:37:59.072Z,4.90
2023-05-18T13:40:26.983Z,6.73
2023-05-18T13:42:54.679Z,5.20
2023-05-18T13:45:24.140Z,6.90
2023-05-18T13:47:53.489Z,4.93
2023-05-18T13:50:22.922Z,5.63
2023-05-18T13:52:50.994Z,5.23
2023-05-18T13:55:18.821Z,4.80
2023-05-18T13:57:47.248Z,7.77
2023-05-18T14:00:16.968Z,7.23
2023-05-18T14:02:46.197Z,5.13
2023-05-18T14:05:15.041Z,6.13
2023-05-18T14:07:44.213Z,5.97
2023-05-18T14:10:13.923Z,6.13
2023-05-18T14:12:42.676Z,5.17
2023-05-18T14:15:13.574Z,8.50
2023-05-18T14:17:41.421Z,4.47
2023-05-18T14:20:11.609Z,9.70
2023-05-18T14:22:39.223Z,5.77
2023-05-18T14:25:07.473Z,4.87
2023-05-18T14:27:35.081Z,6.80
2023-05-18T14:30:02.829Z,7.47
2023-05-18T14:32:30.563Z,4.87
2023-05-18T14:34:58.583Z,6.47
2023-05-18T14:37:27.627Z,7.50
2023-05-18T14:39:55.544Z,7.40
2023-05-18T14:42:23.243Z,5.77
2023-05-18T14:44:50.951Z,5.23
2023-05-18T14:47:18.871Z,6.70
2023-05-18T14:49:46.521Z,5.13
2023-05-18T14:52:14.553Z,7.27
2023-05-18T14:54:43.507Z,8.23
2023-05-18T14:57:11.208Z,10.17
2023-05-18T14:59:38.868Z,9.37
2023-05-18T15:02:07.988Z,9.33
2023-05-18T15:04:36.086Z,6.63
2023-05-18T15:07:04.618Z,6.57
2023-05-18T15:09:32.363Z,10.47
2023-05-18T15:12:01.305Z,4.93
2023-05-18T15:14:29.386Z,8.90
2023-05-18T15:16:58.549Z,5.80
2023-05-18T15:19:26.153Z,4.87
2023-05-18T15:21:53.928Z,4.80
2023-05-18T15:24:21.687Z,7.87
2023-05-18T15:26:49.506Z,9.77
2023-05-18T15:29:18.488Z,8.73
2023-05-18T15:31:46.927Z,6.23
2023-05-18T15:34:15.359Z,7.33
2023-05-18T15:36:43.289Z,5.53
2023-05-18T15:39:10.929Z,4.47
2023-05-18T15:41:38.653Z,8.40
2023-05-18T15:44:06.624Z,7.00
2023-05-18T15:46:35.931Z,8.80
2023-05-18T15:49:04.208Z,5.57
2023-05-18T15:51:32.065Z,5.60
2023-05-18T15:53:59.695Z,7.00
2023-05-18T15:56:28.138Z,4.60
2023-05-18T15:58:55.866Z,8.60
2023-05-18T16:01:23.690Z,11.07
2023-05-18T16:03:52.796Z,6.80
2023-05-18T16:06:20.469Z,9.17
2023-05-18T16:08:48.086Z,11.60
2023-05-18T16:11:16.039Z,4.50
2023-05-18T16:13:43.803Z,5.23
2023-05-18T16:16:14.137Z,6.50
2023-05-18T16:18:42.464Z,6.13
2023-05-18T16:21:11.445Z,7.67
2023-05-18T16:23:39.330Z,6.33
2023-05-18T16:26:07.334Z,15.90
2023-05-18T16:28:35.297Z,4.27
2023-05-18T16:31:04.665Z,8.70
2023-05-18T16:33:32.578Z,9.10
2023-05-18T16:36:00.342Z,10.50
2023-05-18T16:38:29.380Z,8.23
2023-05-18T16:40:57.129Z,8.43
2023-05-18T16:43:24.828Z,5.20
2023-05-18T16:45:53.257Z,7.10
2023-05-18T16:48:20.911Z,7.23
2023-05-18T16:50:48.777Z,9.13
2023-05-18T16:53:16.490Z,5.03
2023-05-18T16:55:45.615Z,5.17
2023-05-18T16:58:13.329Z,7.50
2023-05-18T17:00:41.523Z,5.87
2023-05-18T17:03:09.236Z,7.37
2023-05-18T17:05:37.813Z,8.97
2023-05-18T17:08:05.880Z,7.40
2023-05-18T17:10:35.427Z,8.87
2023-05-18T17:13:04.886Z,5.40
2023-05-18T17:15:33.139Z,5.43
2023-05-18T17:18:01.535Z,7.07
2023-05-18T17:20:29.320Z,7.70
2023-05-18T17:22:57.166Z,6.10
2023-05-18T17:25:25.883Z,8.23
2023-05-18T17:27:53.593Z,6.50
2023-05-18T17:30:23.343Z,7.13
2023-05-18T17:32:51.431Z,7.00
2023-05-18T17:35:19.360Z,6.60
2023-05-18T17:37:48.762Z,6.93
2023-05-18T17:40:16.525Z,6.67
2023-05-18T17:42:44.200Z,6.20
2023-05-18T17:45:12.099Z,5.70
2023-05-18T17:47:42.239Z,8.77
2023-05-18T17:50:10.264Z,4.87
2023-05-18T17:52:37.964Z,7.07
2023-05-18T17:55:06.279Z,7.80
2023-05-18T17:57:34.244Z,6.13
2023-05-18T18:00:02.074Z,5.83
2023-05-18T18:02:29.753Z,5.77
2023-05-18T18:04:58.814Z,7.27
2023-05-18T18:07:26.613Z,8.03
2023-05-18T18:09:54.618Z,5.27
2023-05-18T18:12:22.286Z,5.33
2023-05-18T18:14:49.906Z,6.63
2023-05-18T18:17:17.628Z,11.40
2023-05-18T18:19:45.359Z,9.83
2023-05-18T18:22:14.327Z,6.63
2023-05-18T18:24:41.910Z,10.40
2023-05-18T18:27:09.926Z,7.17
2023-05-18T18:29:37.649Z,6.03
2023-05-18T18:32:06.125Z,5.73
2023-05-18T18:34:34.090Z,7.17
2023-05-18T18:37:02.236Z,8.70
2023-05-18T18:39:31.190Z,5.90
2023-05-18T18:41:59.096Z,5.30
2023-05-18T18:44:26.787Z,8.60
2023-05-18T18:46:54.492Z,8.80
2023-05-18T18:49:22.214Z,4.93
2023-05-18T18:51:51.675Z,4.73
2023-05-18T18:54:19.449Z,5.70
2023-05-18T18:56:48.469Z,7.23
2023-05-18T18:59:16.089Z,6.40
2023-05-18T19:01:44.196Z,7.87
2023-05-18T19:04:12.980Z,4.57
2023-05-18T19:06:42.556Z,9.23
2023-05-18T19:09:10.263Z,6.23
2023-05-18T19:11:37.897Z,8.53
2023-05-18T19:14:06.982Z,6.33
2023-05-18T19:16:35.315Z,5.60
2023-05-18T19:19:08.530Z,9.53
2023-05-18T19:21:36.659Z,7.30
2023-05-18T19:24:04.365Z,6.57
2023-05-18T19:26:32.531Z,6.97
2023-05-18T19:29:00.412Z,7.30
2023-05-18T19:31:31.683Z,6.80
2023-05-18T19:34:00.602Z,4.83
2023-05-18T19:36:28.542Z,8.17
2023-05-18T19:38:56.418Z,7.67
2023-05-18T19:41:24.894Z,6.57
2023-05-18T19:43:52.856Z,17.73
2023-05-18T19:46:20.597Z,12.93
2023-05-18T19:48:49.593Z,12.87
2023-05-18T19:51:18.502Z,11.20
2023-05-18T19:53:46.252Z,9.90
2023-05-18T19:56:14.034Z,8.73
2023-05-18T19:58:41.856Z,7.37
2023-05-18T20:01:10.388Z,7.57
2023-05-18T20:03:40.856Z,9.67
2023-05-18T20:06:12.593Z,8.87
2023-05-18T20:08:40.555Z,60.27
2023-05-18T20:11:08.258Z,51.90
2023-05-18T20:13:35.869Z,33.63
2023-05-18T20:16:04.090Z,24.40
2023-05-18T20:18:34.896Z,21.73
2023-05-18T20:21:03.274Z,18.60
2023-05-18T20:23:32.272Z,28.40
2023-05-18T20:26:01.062Z,17.23
2023-05-18T20:28:31.399Z,10.80
2023-05-18T20:30:59.242Z,24.07
2023-05-18T20:33:27.004Z,20.67
2023-05-18T20:35:54.572Z,8.90
2023-05-18T20:38:25.630Z,13.23
2023-05-18T20:40:57.626Z,8.97
2023-05-18T20:43:25.268Z,8.07
2023-05-18T20:45:52.992Z,11.53
2023-05-18T20:48:26.573Z,7.57
2023-05-18T20:50:54.515Z,15.03
2023-05-18T20:53:22.174Z,20.07
2023-05-18T20:55:50.426Z,16.37
2023-05-18T20:58:19.440Z,22.73
2023-05-18T21:00:47.965Z,15.57
2023-05-18T21:03:18.266Z,18.70
2023-05-18T21:05:49.621Z,15.13
2023-05-18T21:08:17.438Z,15.90
2023-05-18T21:10:45.077Z,27.20
2023-05-18T21:13:12.720Z,25.20
2023-05-18T21:15:41.880Z,13.33
2023-05-18T21:18:09.842Z,18.77
2023-05-18T21:20:37.572Z,30.70
2023-05-18T21:23:05.357Z,18.33
2023-05-18T21:25:32.974Z,28.67
2023-05-18T21:28:00.585Z,38.57
2023-05-18T21:30:28.285Z,25.07
2023-05-18T21:32:57.329Z,19.40
2023-05-18T21:35:25.187Z,25.97
2023-05-18T21:37:53.190Z,13.20
2023-05-18T21:40:20.865Z,8.93
2023-05-18T21:42:48.492Z,19.00
2023-05-18T21:45:17.344Z,12.97
2023-05-18T21:47:45.135Z,17.93
2023-05-18T21:50:14.146Z,8.93
2023-05-18T21:52:41.759Z,7.83
2023-05-18T21:55:10.480Z,6.87
2023-05-18T21:57:38.162Z,9.63
2023-05-18T22:00:07.031Z,15.07
2023-05-18T22:02:34.704Z,14.30
2023-05-18T22:05:02.409Z,17.60
2023-05-18T22:07:31.405Z,8.83
2023-05-18T22:09:58.998Z,8.00
2023-05-18T22:12:27.033Z,9.63
2023-05-18T22:14:54.652Z,7.73
2023-05-18T22:17:22.390Z,9.20
2023-05-18T22:19:50.608Z,7.50
2023-05-18T22:22:29.215Z,11.43
2023-05-18T22:24:59.508Z,9.73
2023-05-18T22:27:27.307Z,8.50
2023-05-18T22:29:55.013Z,10.33
2023-05-18T22:32:22.817Z,11.00
2023-05-18T22:34:50.626Z,6.17
2023-05-18T22:37:18.339Z,8.90
2023-05-18T22:39:45.974Z,11.57
2023-05-18T22:42:15.005Z,9.20
2023-05-18T22:44:42.703Z,11.63
2023-05-18T22:47:11.340Z,8.27
2023-05-18T22:49:41.128Z,9.43
2023-05-18T22:52:10.184Z,9.87
2023-05-18T22:54:37.775Z,16.70
2023-05-18T22:57:05.718Z,12.20
2023-05-18T22:59:35.543Z,8.70
2023-05-18T23:02:03.494Z,7.27
2023-05-18T23:04:31.264Z,8.93
2023-05-18T23:06:59.163Z,8.80
2023-05-18T23:09:27.915Z,11.50
2023-05-18T23:11:56.267Z,9.90
2023-05-18T23:14:24.180Z,7.80
2023-05-18T23:16:53.546Z,10.60
2023-05-18T23:19:21.425Z,13.17
2023-05-18T23:21:49.184Z,8.23
2023-05-18T23:24:17.245Z,6.60
2023-05-18T23:26:45.579Z,12.77
2023-05-18T23:29:13.247Z,7.90
2023-05-18T23:31:41.288Z,6.50
2023-05-18T23:34:11.058Z,9.63
2023-05-18T23:36:42.518Z,22.73
2023-05-18T23:39:10.399Z,8.40
2023-05-18T23:41:39.265Z,9.90
2023-05-18T23:44:07.508Z,12.40
2023-05-18T23:46:35.993Z,9.30
2023-05-18T23:49:04.487Z,11.87
2023-05-18T23:51:36.264Z,9.87
2023-05-18T23:54:07.182Z,9.10
2023-05-18T23:56:35.484Z,11.50
2023-05-18T23:59:03.816Z,10.93
